<?xml version="1.0" encoding="UTF-8" standalone="no" ?>
<gpx xmlns="http://www.topografix.com/GPX/1/1" xmlns:xsi="http://www.w3.org/2001/XMLSchema-instance" xsi:schemaLocation="http://www.topografix.com/GPX/1/1 http://www.topografix.com/GPX/1/1/gpx.xsd" version="1.1" creator="VisuGPX - https://www.visugpx.com">
  <metadata>
    <name>RSPFY-petit tour des Vaux de Cernay</name>
    <desc><![CDATA[boucle de marche nordique autour de l'abbaye des Vaux de Cernay.
NOTA: modifier les 500 premiers mètres hors sentier.]]></desc>
  </metadata>
  <trk>
    <name><![CDATA[2021-09-28 09:00]]></name>
    <desc><![CDATA[<p>Heure de départ: 09:00 28 sept. 2021<br/>Heure d'arrivée: 11:32 28 sept. 2021<br/>Distance: 11,4 km (02:32)<br/>Temps déplacement: 02:08<br/>Vitesse moyenne: 4,5 km/h<br/>Vitesse moyenne mouv.: 5,31 km/h<br/>Vitesse Max.: 7,91 km/h<br/>Altitude minimale: 113 m<br/>Altitude maximale: 181 m<br/>Vitesse de montée: 226,9 m/h<br/>Vitesse de descente: -276,5 m/h<br/>Gain d'altitude: 303 m<br/>Perte d'altitude: -303 m<br/>Temps de montée: 01:20<br/>Temps de descente: 01:05<br/></p><hr align="center" width="480" style="height: 2px; width: 517px"/>]]></desc>
    <trkseg>
      <trkpt lat="48.69298" lon="1.90784">
        <ele>146.7</ele>
        <time>2021-09-28T07:00:38Z</time>
      </trkpt>
      <trkpt lat="48.69308" lon="1.9076">
        <ele>147.7</ele>
        <time>2021-09-28T07:00:54Z</time>
      </trkpt>
      <trkpt lat="48.69314" lon="1.90734">
        <ele>149.7</ele>
        <time>2021-09-28T07:01:11Z</time>
      </trkpt>
      <trkpt lat="48.69328" lon="1.90716">
        <ele>151.7</ele>
        <time>2021-09-28T07:01:27Z</time>
      </trkpt>
      <trkpt lat="48.69341" lon="1.90698">
        <ele>152.8</ele>
        <time>2021-09-28T07:01:43Z</time>
      </trkpt>
      <trkpt lat="48.69348" lon="1.90671">
        <ele>154.2</ele>
        <time>2021-09-28T07:01:59Z</time>
      </trkpt>
      <trkpt lat="48.69359" lon="1.90648">
        <ele>154.7</ele>
        <time>2021-09-28T07:02:16Z</time>
      </trkpt>
      <trkpt lat="48.69351" lon="1.90623">
        <ele>156.9</ele>
        <time>2021-09-28T07:02:32Z</time>
      </trkpt>
      <trkpt lat="48.69341" lon="1.906">
        <ele>159.3</ele>
        <time>2021-09-28T07:02:47Z</time>
      </trkpt>
      <trkpt lat="48.69338" lon="1.90572">
        <ele>161.2</ele>
        <time>2021-09-28T07:03:06Z</time>
      </trkpt>
      <trkpt lat="48.6933" lon="1.90546">
        <ele>163.3</ele>
        <time>2021-09-28T07:03:19Z</time>
      </trkpt>
      <trkpt lat="48.69328" lon="1.90518">
        <ele>165.2</ele>
        <time>2021-09-28T07:03:34Z</time>
      </trkpt>
      <trkpt lat="48.69325" lon="1.90491">
        <ele>166.5</ele>
        <time>2021-09-28T07:03:51Z</time>
      </trkpt>
      <trkpt lat="48.69319" lon="1.90463">
        <ele>167.1</ele>
        <time>2021-09-28T07:04:07Z</time>
      </trkpt>
      <trkpt lat="48.69312" lon="1.90438">
        <ele>168.2</ele>
        <time>2021-09-28T07:04:24Z</time>
      </trkpt>
      <trkpt lat="48.69307" lon="1.90411">
        <ele>169</ele>
        <time>2021-09-28T07:04:40Z</time>
      </trkpt>
      <trkpt lat="48.69303" lon="1.90384">
        <ele>169.1</ele>
        <time>2021-09-28T07:04:57Z</time>
      </trkpt>
      <trkpt lat="48.69293" lon="1.9036">
        <ele>170.4</ele>
        <time>2021-09-28T07:05:14Z</time>
      </trkpt>
      <trkpt lat="48.69282" lon="1.90337">
        <ele>172.2</ele>
        <time>2021-09-28T07:05:32Z</time>
      </trkpt>
      <trkpt lat="48.69277" lon="1.9031">
        <ele>172.9</ele>
        <time>2021-09-28T07:05:52Z</time>
      </trkpt>
      <trkpt lat="48.69291" lon="1.90292">
        <ele>170.4</ele>
        <time>2021-09-28T07:06:57Z</time>
      </trkpt>
      <trkpt lat="48.69309" lon="1.90297">
        <ele>167.4</ele>
        <time>2021-09-28T07:07:12Z</time>
      </trkpt>
      <trkpt lat="48.69326" lon="1.90282">
        <ele>164.8</ele>
        <time>2021-09-28T07:07:25Z</time>
      </trkpt>
      <trkpt lat="48.69344" lon="1.90289">
        <ele>161.9</ele>
        <time>2021-09-28T07:07:40Z</time>
      </trkpt>
      <trkpt lat="48.69355" lon="1.90266">
        <ele>160.7</ele>
        <time>2021-09-28T07:08:26Z</time>
      </trkpt>
      <trkpt lat="48.69373" lon="1.90267">
        <ele>157.9</ele>
        <time>2021-09-28T07:09:45Z</time>
      </trkpt>
      <trkpt lat="48.69392" lon="1.90265">
        <ele>155.2</ele>
        <time>2021-09-28T07:10:00Z</time>
      </trkpt>
      <trkpt lat="48.69411" lon="1.90259">
        <ele>152.6</ele>
        <time>2021-09-28T07:10:16Z</time>
      </trkpt>
      <trkpt lat="48.69428" lon="1.9027">
        <ele>151</ele>
        <time>2021-09-28T07:10:29Z</time>
      </trkpt>
      <trkpt lat="48.69445" lon="1.90282">
        <ele>149.9</ele>
        <time>2021-09-28T07:10:42Z</time>
      </trkpt>
      <trkpt lat="48.69451" lon="1.90309">
        <ele>148.9</ele>
        <time>2021-09-28T07:10:55Z</time>
      </trkpt>
      <trkpt lat="48.69469" lon="1.90318">
        <ele>147.9</ele>
        <time>2021-09-28T07:11:09Z</time>
      </trkpt>
      <trkpt lat="48.69486" lon="1.90329">
        <ele>146.8</ele>
        <time>2021-09-28T07:11:24Z</time>
      </trkpt>
      <trkpt lat="48.69503" lon="1.90339">
        <ele>146.1</ele>
        <time>2021-09-28T07:11:37Z</time>
      </trkpt>
      <trkpt lat="48.6952" lon="1.90348">
        <ele>146.6</ele>
        <time>2021-09-28T07:11:49Z</time>
      </trkpt>
      <trkpt lat="48.69539" lon="1.90344">
        <ele>147.2</ele>
        <time>2021-09-28T07:12:05Z</time>
      </trkpt>
      <trkpt lat="48.69557" lon="1.90345">
        <ele>147.7</ele>
        <time>2021-09-28T07:12:21Z</time>
      </trkpt>
      <trkpt lat="48.69576" lon="1.90347">
        <ele>148.1</ele>
        <time>2021-09-28T07:12:48Z</time>
      </trkpt>
      <trkpt lat="48.69589" lon="1.90367">
        <ele>147.6</ele>
        <time>2021-09-28T07:13:02Z</time>
      </trkpt>
      <trkpt lat="48.69603" lon="1.90384">
        <ele>147.4</ele>
        <time>2021-09-28T07:13:14Z</time>
      </trkpt>
      <trkpt lat="48.69618" lon="1.90367">
        <ele>148.8</ele>
        <time>2021-09-28T07:13:30Z</time>
      </trkpt>
      <trkpt lat="48.69619" lon="1.9034">
        <ele>150</ele>
        <time>2021-09-28T07:13:43Z</time>
      </trkpt>
      <trkpt lat="48.69618" lon="1.90312">
        <ele>151.4</ele>
        <time>2021-09-28T07:13:56Z</time>
      </trkpt>
      <trkpt lat="48.69616" lon="1.90283">
        <ele>152.9</ele>
        <time>2021-09-28T07:14:11Z</time>
      </trkpt>
      <trkpt lat="48.69612" lon="1.90255">
        <ele>154.4</ele>
        <time>2021-09-28T07:14:24Z</time>
      </trkpt>
      <trkpt lat="48.69609" lon="1.90227">
        <ele>154.6</ele>
        <time>2021-09-28T07:14:38Z</time>
      </trkpt>
      <trkpt lat="48.69608" lon="1.90199">
        <ele>154.6</ele>
        <time>2021-09-28T07:14:55Z</time>
      </trkpt>
      <trkpt lat="48.69603" lon="1.90173">
        <ele>154.5</ele>
        <time>2021-09-28T07:15:10Z</time>
      </trkpt>
      <trkpt lat="48.69602" lon="1.90145">
        <ele>154.8</ele>
        <time>2021-09-28T07:15:25Z</time>
      </trkpt>
      <trkpt lat="48.69597" lon="1.90117">
        <ele>155.3</ele>
        <time>2021-09-28T07:15:39Z</time>
      </trkpt>
      <trkpt lat="48.69596" lon="1.90089">
        <ele>155.9</ele>
        <time>2021-09-28T07:15:55Z</time>
      </trkpt>
      <trkpt lat="48.6959" lon="1.90063">
        <ele>156.5</ele>
        <time>2021-09-28T07:16:09Z</time>
      </trkpt>
      <trkpt lat="48.69583" lon="1.90036">
        <ele>157.1</ele>
        <time>2021-09-28T07:16:25Z</time>
      </trkpt>
      <trkpt lat="48.69575" lon="1.90012">
        <ele>157.8</ele>
        <time>2021-09-28T07:16:40Z</time>
      </trkpt>
      <trkpt lat="48.69567" lon="1.89988">
        <ele>159.3</ele>
        <time>2021-09-28T07:16:52Z</time>
      </trkpt>
      <trkpt lat="48.69558" lon="1.89963">
        <ele>161.1</ele>
        <time>2021-09-28T07:17:05Z</time>
      </trkpt>
      <trkpt lat="48.6955" lon="1.89938">
        <ele>162.5</ele>
        <time>2021-09-28T07:17:20Z</time>
      </trkpt>
      <trkpt lat="48.6954" lon="1.89915">
        <ele>163.5</ele>
        <time>2021-09-28T07:17:35Z</time>
      </trkpt>
      <trkpt lat="48.6953" lon="1.89891">
        <ele>163.7</ele>
        <time>2021-09-28T07:17:50Z</time>
      </trkpt>
      <trkpt lat="48.69521" lon="1.89866">
        <ele>163.8</ele>
        <time>2021-09-28T07:18:04Z</time>
      </trkpt>
      <trkpt lat="48.69513" lon="1.89841">
        <ele>163.8</ele>
        <time>2021-09-28T07:18:18Z</time>
      </trkpt>
      <trkpt lat="48.69504" lon="1.89817">
        <ele>164.1</ele>
        <time>2021-09-28T07:18:30Z</time>
      </trkpt>
      <trkpt lat="48.69495" lon="1.89793">
        <ele>165.1</ele>
        <time>2021-09-28T07:18:44Z</time>
      </trkpt>
      <trkpt lat="48.69486" lon="1.89768">
        <ele>166.2</ele>
        <time>2021-09-28T07:18:56Z</time>
      </trkpt>
      <trkpt lat="48.69478" lon="1.89742">
        <ele>167.1</ele>
        <time>2021-09-28T07:19:08Z</time>
      </trkpt>
      <trkpt lat="48.69494" lon="1.89729">
        <ele>167.9</ele>
        <time>2021-09-28T07:19:29Z</time>
      </trkpt>
      <trkpt lat="48.69513" lon="1.89728">
        <ele>168.6</ele>
        <time>2021-09-28T07:19:48Z</time>
      </trkpt>
      <trkpt lat="48.69526" lon="1.89707">
        <ele>170.1</ele>
        <time>2021-09-28T07:20:09Z</time>
      </trkpt>
      <trkpt lat="48.69535" lon="1.89683">
        <ele>171.6</ele>
        <time>2021-09-28T07:20:24Z</time>
      </trkpt>
      <trkpt lat="48.69544" lon="1.89658">
        <ele>172.6</ele>
        <time>2021-09-28T07:20:39Z</time>
      </trkpt>
      <trkpt lat="48.69532" lon="1.89636">
        <ele>172.4</ele>
        <time>2021-09-28T07:20:55Z</time>
      </trkpt>
      <trkpt lat="48.69515" lon="1.89628">
        <ele>171.9</ele>
        <time>2021-09-28T07:21:10Z</time>
      </trkpt>
      <trkpt lat="48.69497" lon="1.89618">
        <ele>171.5</ele>
        <time>2021-09-28T07:21:22Z</time>
      </trkpt>
      <trkpt lat="48.69478" lon="1.89611">
        <ele>170.9</ele>
        <time>2021-09-28T07:21:35Z</time>
      </trkpt>
      <trkpt lat="48.6946" lon="1.89602">
        <ele>170.3</ele>
        <time>2021-09-28T07:21:49Z</time>
      </trkpt>
      <trkpt lat="48.69441" lon="1.89595">
        <ele>169.7</ele>
        <time>2021-09-28T07:22:02Z</time>
      </trkpt>
      <trkpt lat="48.69422" lon="1.89589">
        <ele>169.1</ele>
        <time>2021-09-28T07:22:15Z</time>
      </trkpt>
      <trkpt lat="48.69404" lon="1.89581">
        <ele>169.2</ele>
        <time>2021-09-28T07:22:28Z</time>
      </trkpt>
      <trkpt lat="48.69387" lon="1.89571">
        <ele>169.6</ele>
        <time>2021-09-28T07:22:40Z</time>
      </trkpt>
      <trkpt lat="48.69369" lon="1.89561">
        <ele>170.2</ele>
        <time>2021-09-28T07:22:53Z</time>
      </trkpt>
      <trkpt lat="48.69351" lon="1.8955">
        <ele>170.8</ele>
        <time>2021-09-28T07:23:06Z</time>
      </trkpt>
      <trkpt lat="48.69334" lon="1.89539">
        <ele>171.6</ele>
        <time>2021-09-28T07:23:20Z</time>
      </trkpt>
      <trkpt lat="48.69317" lon="1.89531">
        <ele>172.4</ele>
        <time>2021-09-28T07:23:33Z</time>
      </trkpt>
      <trkpt lat="48.69299" lon="1.8952">
        <ele>173.3</ele>
        <time>2021-09-28T07:23:46Z</time>
      </trkpt>
      <trkpt lat="48.69281" lon="1.89514">
        <ele>174</ele>
        <time>2021-09-28T07:25:17Z</time>
      </trkpt>
      <trkpt lat="48.69263" lon="1.89503">
        <ele>174.6</ele>
        <time>2021-09-28T07:25:43Z</time>
      </trkpt>
      <trkpt lat="48.69245" lon="1.89494">
        <ele>174.9</ele>
        <time>2021-09-28T07:25:57Z</time>
      </trkpt>
      <trkpt lat="48.69227" lon="1.89486">
        <ele>174.8</ele>
        <time>2021-09-28T07:26:08Z</time>
      </trkpt>
      <trkpt lat="48.6921" lon="1.89475">
        <ele>174.7</ele>
        <time>2021-09-28T07:26:21Z</time>
      </trkpt>
      <trkpt lat="48.69193" lon="1.89466">
        <ele>174.8</ele>
        <time>2021-09-28T07:26:33Z</time>
      </trkpt>
      <trkpt lat="48.69175" lon="1.89455">
        <ele>174.8</ele>
        <time>2021-09-28T07:26:46Z</time>
      </trkpt>
      <trkpt lat="48.69158" lon="1.89448">
        <ele>175.1</ele>
        <time>2021-09-28T07:27:00Z</time>
      </trkpt>
      <trkpt lat="48.6914" lon="1.89439">
        <ele>175.6</ele>
        <time>2021-09-28T07:27:14Z</time>
      </trkpt>
      <trkpt lat="48.69122" lon="1.8943">
        <ele>176.3</ele>
        <time>2021-09-28T07:27:26Z</time>
      </trkpt>
      <trkpt lat="48.69104" lon="1.89419">
        <ele>177</ele>
        <time>2021-09-28T07:27:40Z</time>
      </trkpt>
      <trkpt lat="48.69086" lon="1.89406">
        <ele>177.6</ele>
        <time>2021-09-28T07:27:53Z</time>
      </trkpt>
      <trkpt lat="48.69068" lon="1.89399">
        <ele>178.1</ele>
        <time>2021-09-28T07:28:06Z</time>
      </trkpt>
      <trkpt lat="48.69051" lon="1.89387">
        <ele>178.4</ele>
        <time>2021-09-28T07:28:18Z</time>
      </trkpt>
      <trkpt lat="48.69033" lon="1.89379">
        <ele>178.9</ele>
        <time>2021-09-28T07:28:30Z</time>
      </trkpt>
      <trkpt lat="48.69016" lon="1.89368">
        <ele>179.3</ele>
        <time>2021-09-28T07:28:41Z</time>
      </trkpt>
      <trkpt lat="48.68997" lon="1.89362">
        <ele>179.8</ele>
        <time>2021-09-28T07:28:55Z</time>
      </trkpt>
      <trkpt lat="48.68979" lon="1.89357">
        <ele>180.7</ele>
        <time>2021-09-28T07:29:09Z</time>
      </trkpt>
      <trkpt lat="48.68962" lon="1.89348">
        <ele>181.5</ele>
        <time>2021-09-28T07:29:22Z</time>
      </trkpt>
      <trkpt lat="48.68943" lon="1.89345">
        <ele>182.5</ele>
        <time>2021-09-28T07:29:36Z</time>
      </trkpt>
      <trkpt lat="48.68925" lon="1.89341">
        <ele>183.5</ele>
        <time>2021-09-28T07:29:49Z</time>
      </trkpt>
      <trkpt lat="48.68907" lon="1.89338">
        <ele>184</ele>
        <time>2021-09-28T07:30:01Z</time>
      </trkpt>
      <trkpt lat="48.68889" lon="1.89338">
        <ele>184</ele>
        <time>2021-09-28T07:30:14Z</time>
      </trkpt>
      <trkpt lat="48.68869" lon="1.8934">
        <ele>184</ele>
        <time>2021-09-28T07:30:28Z</time>
      </trkpt>
      <trkpt lat="48.68851" lon="1.89338">
        <ele>184</ele>
        <time>2021-09-28T07:30:40Z</time>
      </trkpt>
      <trkpt lat="48.68832" lon="1.89339">
        <ele>184.1</ele>
        <time>2021-09-28T07:30:54Z</time>
      </trkpt>
      <trkpt lat="48.68813" lon="1.89339">
        <ele>183.8</ele>
        <time>2021-09-28T07:31:05Z</time>
      </trkpt>
      <trkpt lat="48.68794" lon="1.89333">
        <ele>183.5</ele>
        <time>2021-09-28T07:31:18Z</time>
      </trkpt>
      <trkpt lat="48.68776" lon="1.89327">
        <ele>183.4</ele>
        <time>2021-09-28T07:31:30Z</time>
      </trkpt>
      <trkpt lat="48.68758" lon="1.89322">
        <ele>183.2</ele>
        <time>2021-09-28T07:31:43Z</time>
      </trkpt>
      <trkpt lat="48.6874" lon="1.89315">
        <ele>183.4</ele>
        <time>2021-09-28T07:31:57Z</time>
      </trkpt>
      <trkpt lat="48.68723" lon="1.89303">
        <ele>183.8</ele>
        <time>2021-09-28T07:32:10Z</time>
      </trkpt>
      <trkpt lat="48.68706" lon="1.89291">
        <ele>184</ele>
        <time>2021-09-28T07:32:23Z</time>
      </trkpt>
      <trkpt lat="48.6869" lon="1.89277">
        <ele>184.1</ele>
        <time>2021-09-28T07:32:36Z</time>
      </trkpt>
      <trkpt lat="48.68674" lon="1.89262">
        <ele>184.1</ele>
        <time>2021-09-28T07:32:48Z</time>
      </trkpt>
      <trkpt lat="48.6866" lon="1.89245">
        <ele>184.1</ele>
        <time>2021-09-28T07:33:03Z</time>
      </trkpt>
      <trkpt lat="48.68645" lon="1.89229">
        <ele>184.3</ele>
        <time>2021-09-28T07:33:16Z</time>
      </trkpt>
      <trkpt lat="48.6863" lon="1.89212">
        <ele>184.4</ele>
        <time>2021-09-28T07:33:28Z</time>
      </trkpt>
      <trkpt lat="48.68616" lon="1.89193">
        <ele>184.6</ele>
        <time>2021-09-28T07:33:41Z</time>
      </trkpt>
      <trkpt lat="48.686" lon="1.89207">
        <ele>184.8</ele>
        <time>2021-09-28T07:34:57Z</time>
      </trkpt>
      <trkpt lat="48.686" lon="1.89235">
        <ele>184.8</ele>
        <time>2021-09-28T07:35:10Z</time>
      </trkpt>
      <trkpt lat="48.68602" lon="1.89263">
        <ele>184.9</ele>
        <time>2021-09-28T07:35:22Z</time>
      </trkpt>
      <trkpt lat="48.68601" lon="1.8929">
        <ele>185.3</ele>
        <time>2021-09-28T07:35:33Z</time>
      </trkpt>
      <trkpt lat="48.68601" lon="1.89318">
        <ele>185.6</ele>
        <time>2021-09-28T07:35:46Z</time>
      </trkpt>
      <trkpt lat="48.68601" lon="1.89347">
        <ele>185.8</ele>
        <time>2021-09-28T07:35:58Z</time>
      </trkpt>
      <trkpt lat="48.686" lon="1.89376">
        <ele>185.8</ele>
        <time>2021-09-28T07:36:10Z</time>
      </trkpt>
      <trkpt lat="48.68599" lon="1.89404">
        <ele>185.8</ele>
        <time>2021-09-28T07:36:24Z</time>
      </trkpt>
      <trkpt lat="48.68598" lon="1.89432">
        <ele>185.5</ele>
        <time>2021-09-28T07:36:36Z</time>
      </trkpt>
      <trkpt lat="48.68599" lon="1.89461">
        <ele>185</ele>
        <time>2021-09-28T07:36:49Z</time>
      </trkpt>
      <trkpt lat="48.68599" lon="1.89489">
        <ele>184.4</ele>
        <time>2021-09-28T07:37:00Z</time>
      </trkpt>
      <trkpt lat="48.68596" lon="1.89517">
        <ele>184.1</ele>
        <time>2021-09-28T07:37:12Z</time>
      </trkpt>
      <trkpt lat="48.68597" lon="1.89544">
        <ele>184.1</ele>
        <time>2021-09-28T07:37:26Z</time>
      </trkpt>
      <trkpt lat="48.68596" lon="1.89574">
        <ele>184</ele>
        <time>2021-09-28T07:37:38Z</time>
      </trkpt>
      <trkpt lat="48.68598" lon="1.89602">
        <ele>183.6</ele>
        <time>2021-09-28T07:37:50Z</time>
      </trkpt>
      <trkpt lat="48.68601" lon="1.89631">
        <ele>182.9</ele>
        <time>2021-09-28T07:38:03Z</time>
      </trkpt>
      <trkpt lat="48.68603" lon="1.8966">
        <ele>182.2</ele>
        <time>2021-09-28T07:38:17Z</time>
      </trkpt>
      <trkpt lat="48.68604" lon="1.89688">
        <ele>181.5</ele>
        <time>2021-09-28T07:38:30Z</time>
      </trkpt>
      <trkpt lat="48.68615" lon="1.89711">
        <ele>181.2</ele>
        <time>2021-09-28T07:38:46Z</time>
      </trkpt>
      <trkpt lat="48.68627" lon="1.89733">
        <ele>181.3</ele>
        <time>2021-09-28T07:38:59Z</time>
      </trkpt>
      <trkpt lat="48.68638" lon="1.89757">
        <ele>181.7</ele>
        <time>2021-09-28T07:39:12Z</time>
      </trkpt>
      <trkpt lat="48.68649" lon="1.89779">
        <ele>182.7</ele>
        <time>2021-09-28T07:39:25Z</time>
      </trkpt>
      <trkpt lat="48.6866" lon="1.89801">
        <ele>183.8</ele>
        <time>2021-09-28T07:39:38Z</time>
      </trkpt>
      <trkpt lat="48.68672" lon="1.89823">
        <ele>184.8</ele>
        <time>2021-09-28T07:39:50Z</time>
      </trkpt>
      <trkpt lat="48.68685" lon="1.89845">
        <ele>184.9</ele>
        <time>2021-09-28T07:40:03Z</time>
      </trkpt>
      <trkpt lat="48.68697" lon="1.89866">
        <ele>184.6</ele>
        <time>2021-09-28T07:40:15Z</time>
      </trkpt>
      <trkpt lat="48.68708" lon="1.89889">
        <ele>184.3</ele>
        <time>2021-09-28T07:40:27Z</time>
      </trkpt>
      <trkpt lat="48.6872" lon="1.89912">
        <ele>184.1</ele>
        <time>2021-09-28T07:40:41Z</time>
      </trkpt>
      <trkpt lat="48.68732" lon="1.89932">
        <ele>184</ele>
        <time>2021-09-28T07:40:53Z</time>
      </trkpt>
      <trkpt lat="48.68747" lon="1.89952">
        <ele>184</ele>
        <time>2021-09-28T07:41:07Z</time>
      </trkpt>
      <trkpt lat="48.68758" lon="1.89977">
        <ele>184.2</ele>
        <time>2021-09-28T07:41:17Z</time>
      </trkpt>
      <trkpt lat="48.68767" lon="1.9">
        <ele>184.4</ele>
        <time>2021-09-28T07:41:31Z</time>
      </trkpt>
      <trkpt lat="48.68781" lon="1.90021">
        <ele>184.6</ele>
        <time>2021-09-28T07:41:45Z</time>
      </trkpt>
      <trkpt lat="48.68794" lon="1.90041">
        <ele>184.8</ele>
        <time>2021-09-28T07:41:58Z</time>
      </trkpt>
      <trkpt lat="48.68806" lon="1.90064">
        <ele>184.8</ele>
        <time>2021-09-28T07:42:11Z</time>
      </trkpt>
      <trkpt lat="48.68818" lon="1.90084">
        <ele>184.8</ele>
        <time>2021-09-28T07:42:23Z</time>
      </trkpt>
      <trkpt lat="48.68831" lon="1.90103">
        <ele>185</ele>
        <time>2021-09-28T07:42:36Z</time>
      </trkpt>
      <trkpt lat="48.68842" lon="1.90125">
        <ele>185</ele>
        <time>2021-09-28T07:42:48Z</time>
      </trkpt>
      <trkpt lat="48.68855" lon="1.90146">
        <ele>185</ele>
        <time>2021-09-28T07:43:01Z</time>
      </trkpt>
      <trkpt lat="48.68868" lon="1.90166">
        <ele>185</ele>
        <time>2021-09-28T07:43:15Z</time>
      </trkpt>
      <trkpt lat="48.68879" lon="1.90189">
        <ele>184.2</ele>
        <time>2021-09-28T07:43:27Z</time>
      </trkpt>
      <trkpt lat="48.68891" lon="1.9021">
        <ele>183.4</ele>
        <time>2021-09-28T07:43:41Z</time>
      </trkpt>
      <trkpt lat="48.68878" lon="1.9023">
        <ele>182.7</ele>
        <time>2021-09-28T07:44:38Z</time>
      </trkpt>
      <trkpt lat="48.68861" lon="1.90241">
        <ele>182.3</ele>
        <time>2021-09-28T07:44:53Z</time>
      </trkpt>
      <trkpt lat="48.68845" lon="1.90256">
        <ele>181.6</ele>
        <time>2021-09-28T07:45:06Z</time>
      </trkpt>
      <trkpt lat="48.6883" lon="1.90272">
        <ele>180.9</ele>
        <time>2021-09-28T07:45:18Z</time>
      </trkpt>
      <trkpt lat="48.68813" lon="1.90285">
        <ele>181.2</ele>
        <time>2021-09-28T07:45:32Z</time>
      </trkpt>
      <trkpt lat="48.68797" lon="1.90299">
        <ele>181.6</ele>
        <time>2021-09-28T07:45:45Z</time>
      </trkpt>
      <trkpt lat="48.68783" lon="1.90319">
        <ele>181.8</ele>
        <time>2021-09-28T07:45:57Z</time>
      </trkpt>
      <trkpt lat="48.68771" lon="1.90341">
        <ele>181.6</ele>
        <time>2021-09-28T07:46:11Z</time>
      </trkpt>
      <trkpt lat="48.68755" lon="1.90356">
        <ele>182.1</ele>
        <time>2021-09-28T07:46:25Z</time>
      </trkpt>
      <trkpt lat="48.68742" lon="1.90376">
        <ele>181.7</ele>
        <time>2021-09-28T07:46:36Z</time>
      </trkpt>
      <trkpt lat="48.68728" lon="1.90395">
        <ele>181.3</ele>
        <time>2021-09-28T07:46:48Z</time>
      </trkpt>
      <trkpt lat="48.68713" lon="1.90411">
        <ele>181.4</ele>
        <time>2021-09-28T07:46:58Z</time>
      </trkpt>
      <trkpt lat="48.68698" lon="1.90427">
        <ele>181.7</ele>
        <time>2021-09-28T07:47:11Z</time>
      </trkpt>
      <trkpt lat="48.68685" lon="1.90446">
        <ele>182</ele>
        <time>2021-09-28T07:47:26Z</time>
      </trkpt>
      <trkpt lat="48.6867" lon="1.90464">
        <ele>182.6</ele>
        <time>2021-09-28T07:47:39Z</time>
      </trkpt>
      <trkpt lat="48.68653" lon="1.90477">
        <ele>182.5</ele>
        <time>2021-09-28T07:47:51Z</time>
      </trkpt>
      <trkpt lat="48.68636" lon="1.9049">
        <ele>182.2</ele>
        <time>2021-09-28T07:48:03Z</time>
      </trkpt>
      <trkpt lat="48.68619" lon="1.90502">
        <ele>181.9</ele>
        <time>2021-09-28T07:48:18Z</time>
      </trkpt>
      <trkpt lat="48.68604" lon="1.90518">
        <ele>181.3</ele>
        <time>2021-09-28T07:48:32Z</time>
      </trkpt>
      <trkpt lat="48.68602" lon="1.90546">
        <ele>180.4</ele>
        <time>2021-09-28T07:49:08Z</time>
      </trkpt>
      <trkpt lat="48.68602" lon="1.90574">
        <ele>179.3</ele>
        <time>2021-09-28T07:49:21Z</time>
      </trkpt>
      <trkpt lat="48.68602" lon="1.90603">
        <ele>178.5</ele>
        <time>2021-09-28T07:49:34Z</time>
      </trkpt>
      <trkpt lat="48.686" lon="1.90632">
        <ele>177.6</ele>
        <time>2021-09-28T07:49:46Z</time>
      </trkpt>
      <trkpt lat="48.68601" lon="1.90661">
        <ele>176.8</ele>
        <time>2021-09-28T07:49:59Z</time>
      </trkpt>
      <trkpt lat="48.686" lon="1.9069">
        <ele>176.4</ele>
        <time>2021-09-28T07:50:11Z</time>
      </trkpt>
      <trkpt lat="48.68601" lon="1.90719">
        <ele>176.3</ele>
        <time>2021-09-28T07:50:25Z</time>
      </trkpt>
      <trkpt lat="48.68601" lon="1.90747">
        <ele>176.1</ele>
        <time>2021-09-28T07:50:41Z</time>
      </trkpt>
      <trkpt lat="48.68598" lon="1.90776">
        <ele>174.6</ele>
        <time>2021-09-28T07:50:55Z</time>
      </trkpt>
      <trkpt lat="48.68599" lon="1.90804">
        <ele>173.4</ele>
        <time>2021-09-28T07:51:08Z</time>
      </trkpt>
      <trkpt lat="48.68591" lon="1.90829">
        <ele>171.7</ele>
        <time>2021-09-28T07:51:27Z</time>
      </trkpt>
      <trkpt lat="48.68579" lon="1.9085">
        <ele>168.5</ele>
        <time>2021-09-28T07:51:42Z</time>
      </trkpt>
      <trkpt lat="48.68565" lon="1.9087">
        <ele>165.5</ele>
        <time>2021-09-28T07:51:57Z</time>
      </trkpt>
      <trkpt lat="48.68564" lon="1.90899">
        <ele>162.6</ele>
        <time>2021-09-28T07:52:12Z</time>
      </trkpt>
      <trkpt lat="48.68577" lon="1.9092">
        <ele>159.9</ele>
        <time>2021-09-28T07:52:25Z</time>
      </trkpt>
      <trkpt lat="48.68584" lon="1.90946">
        <ele>156.6</ele>
        <time>2021-09-28T07:52:39Z</time>
      </trkpt>
      <trkpt lat="48.68593" lon="1.9097">
        <ele>154</ele>
        <time>2021-09-28T07:52:53Z</time>
      </trkpt>
      <trkpt lat="48.68604" lon="1.90993">
        <ele>151.6</ele>
        <time>2021-09-28T07:53:06Z</time>
      </trkpt>
      <trkpt lat="48.68615" lon="1.91015">
        <ele>150.8</ele>
        <time>2021-09-28T07:53:20Z</time>
      </trkpt>
      <trkpt lat="48.6863" lon="1.91033">
        <ele>150.6</ele>
        <time>2021-09-28T07:53:35Z</time>
      </trkpt>
      <trkpt lat="48.68644" lon="1.91051">
        <ele>150</ele>
        <time>2021-09-28T07:53:47Z</time>
      </trkpt>
      <trkpt lat="48.6863" lon="1.9107">
        <ele>149.3</ele>
        <time>2021-09-28T07:54:36Z</time>
      </trkpt>
      <trkpt lat="48.68612" lon="1.91065">
        <ele>149.7</ele>
        <time>2021-09-28T07:54:50Z</time>
      </trkpt>
      <trkpt lat="48.68594" lon="1.91058">
        <ele>149.9</ele>
        <time>2021-09-28T07:55:04Z</time>
      </trkpt>
      <trkpt lat="48.68576" lon="1.91047">
        <ele>150.6</ele>
        <time>2021-09-28T07:55:21Z</time>
      </trkpt>
      <trkpt lat="48.68559" lon="1.91039">
        <ele>152.1</ele>
        <time>2021-09-28T07:55:34Z</time>
      </trkpt>
      <trkpt lat="48.68541" lon="1.91041">
        <ele>153.6</ele>
        <time>2021-09-28T07:55:46Z</time>
      </trkpt>
      <trkpt lat="48.68523" lon="1.91038">
        <ele>155.2</ele>
        <time>2021-09-28T07:55:58Z</time>
      </trkpt>
      <trkpt lat="48.68504" lon="1.91039">
        <ele>156.8</ele>
        <time>2021-09-28T07:56:11Z</time>
      </trkpt>
      <trkpt lat="48.68487" lon="1.91047">
        <ele>158</ele>
        <time>2021-09-28T07:56:25Z</time>
      </trkpt>
      <trkpt lat="48.68468" lon="1.91054">
        <ele>159.5</ele>
        <time>2021-09-28T07:56:38Z</time>
      </trkpt>
      <trkpt lat="48.68452" lon="1.9107">
        <ele>160</ele>
        <time>2021-09-28T07:56:54Z</time>
      </trkpt>
      <trkpt lat="48.68435" lon="1.91084">
        <ele>160.5</ele>
        <time>2021-09-28T07:57:06Z</time>
      </trkpt>
      <trkpt lat="48.6842" lon="1.91099">
        <ele>162.7</ele>
        <time>2021-09-28T07:57:19Z</time>
      </trkpt>
      <trkpt lat="48.68402" lon="1.91105">
        <ele>163.6</ele>
        <time>2021-09-28T07:57:32Z</time>
      </trkpt>
      <trkpt lat="48.68384" lon="1.91111">
        <ele>164.2</ele>
        <time>2021-09-28T07:57:46Z</time>
      </trkpt>
      <trkpt lat="48.68366" lon="1.91117">
        <ele>164.7</ele>
        <time>2021-09-28T07:58:00Z</time>
      </trkpt>
      <trkpt lat="48.68347" lon="1.91119">
        <ele>165.1</ele>
        <time>2021-09-28T07:58:12Z</time>
      </trkpt>
      <trkpt lat="48.68328" lon="1.91116">
        <ele>165.5</ele>
        <time>2021-09-28T07:58:27Z</time>
      </trkpt>
      <trkpt lat="48.6831" lon="1.91116">
        <ele>166.4</ele>
        <time>2021-09-28T07:58:41Z</time>
      </trkpt>
      <trkpt lat="48.6829" lon="1.91111">
        <ele>167.2</ele>
        <time>2021-09-28T07:58:56Z</time>
      </trkpt>
      <trkpt lat="48.68272" lon="1.91115">
        <ele>168.3</ele>
        <time>2021-09-28T07:59:08Z</time>
      </trkpt>
      <trkpt lat="48.68256" lon="1.91129">
        <ele>169.8</ele>
        <time>2021-09-28T07:59:24Z</time>
      </trkpt>
      <trkpt lat="48.68241" lon="1.91142">
        <ele>171.7</ele>
        <time>2021-09-28T07:59:37Z</time>
      </trkpt>
      <trkpt lat="48.68224" lon="1.91158">
        <ele>173.6</ele>
        <time>2021-09-28T07:59:53Z</time>
      </trkpt>
      <trkpt lat="48.68209" lon="1.91174">
        <ele>175.1</ele>
        <time>2021-09-28T08:00:07Z</time>
      </trkpt>
      <trkpt lat="48.68203" lon="1.912">
        <ele>175.9</ele>
        <time>2021-09-28T08:00:21Z</time>
      </trkpt>
      <trkpt lat="48.68216" lon="1.91221">
        <ele>175.7</ele>
        <time>2021-09-28T08:05:06Z</time>
      </trkpt>
      <trkpt lat="48.68234" lon="1.91225">
        <ele>175.3</ele>
        <time>2021-09-28T08:05:19Z</time>
      </trkpt>
      <trkpt lat="48.68251" lon="1.91231">
        <ele>175</ele>
        <time>2021-09-28T08:05:40Z</time>
      </trkpt>
      <trkpt lat="48.6827" lon="1.91238">
        <ele>174.8</ele>
        <time>2021-09-28T08:05:53Z</time>
      </trkpt>
      <trkpt lat="48.68289" lon="1.91235">
        <ele>174.1</ele>
        <time>2021-09-28T08:06:04Z</time>
      </trkpt>
      <trkpt lat="48.68308" lon="1.9124">
        <ele>173.8</ele>
        <time>2021-09-28T08:06:17Z</time>
      </trkpt>
      <trkpt lat="48.68327" lon="1.91238">
        <ele>173.2</ele>
        <time>2021-09-28T08:06:29Z</time>
      </trkpt>
      <trkpt lat="48.68346" lon="1.91242">
        <ele>173.4</ele>
        <time>2021-09-28T08:06:41Z</time>
      </trkpt>
      <trkpt lat="48.68365" lon="1.91248">
        <ele>173.8</ele>
        <time>2021-09-28T08:06:52Z</time>
      </trkpt>
      <trkpt lat="48.68382" lon="1.91255">
        <ele>174</ele>
        <time>2021-09-28T08:07:04Z</time>
      </trkpt>
      <trkpt lat="48.68401" lon="1.91259">
        <ele>174</ele>
        <time>2021-09-28T08:07:19Z</time>
      </trkpt>
      <trkpt lat="48.6842" lon="1.91265">
        <ele>174</ele>
        <time>2021-09-28T08:07:34Z</time>
      </trkpt>
      <trkpt lat="48.68439" lon="1.91271">
        <ele>174.2</ele>
        <time>2021-09-28T08:07:47Z</time>
      </trkpt>
      <trkpt lat="48.68456" lon="1.9128">
        <ele>174.3</ele>
        <time>2021-09-28T08:07:59Z</time>
      </trkpt>
      <trkpt lat="48.68469" lon="1.91301">
        <ele>174.2</ele>
        <time>2021-09-28T08:08:25Z</time>
      </trkpt>
      <trkpt lat="48.68477" lon="1.91326">
        <ele>174.1</ele>
        <time>2021-09-28T08:08:40Z</time>
      </trkpt>
      <trkpt lat="48.68483" lon="1.91353">
        <ele>174.2</ele>
        <time>2021-09-28T08:08:55Z</time>
      </trkpt>
      <trkpt lat="48.68487" lon="1.91381">
        <ele>174.6</ele>
        <time>2021-09-28T08:09:08Z</time>
      </trkpt>
      <trkpt lat="48.6849" lon="1.91409">
        <ele>174.9</ele>
        <time>2021-09-28T08:09:20Z</time>
      </trkpt>
      <trkpt lat="48.68497" lon="1.91435">
        <ele>175.4</ele>
        <time>2021-09-28T08:09:31Z</time>
      </trkpt>
      <trkpt lat="48.68504" lon="1.91462">
        <ele>175.2</ele>
        <time>2021-09-28T08:09:44Z</time>
      </trkpt>
      <trkpt lat="48.68512" lon="1.91488">
        <ele>174.1</ele>
        <time>2021-09-28T08:09:57Z</time>
      </trkpt>
      <trkpt lat="48.68518" lon="1.91515">
        <ele>172.8</ele>
        <time>2021-09-28T08:10:10Z</time>
      </trkpt>
      <trkpt lat="48.68524" lon="1.91541">
        <ele>171</ele>
        <time>2021-09-28T08:10:22Z</time>
      </trkpt>
      <trkpt lat="48.6853" lon="1.91569">
        <ele>169.2</ele>
        <time>2021-09-28T08:10:33Z</time>
      </trkpt>
      <trkpt lat="48.68537" lon="1.91594">
        <ele>167.6</ele>
        <time>2021-09-28T08:10:45Z</time>
      </trkpt>
      <trkpt lat="48.68542" lon="1.91622">
        <ele>167.2</ele>
        <time>2021-09-28T08:10:56Z</time>
      </trkpt>
      <trkpt lat="48.68544" lon="1.91649">
        <ele>167.3</ele>
        <time>2021-09-28T08:11:08Z</time>
      </trkpt>
      <trkpt lat="48.68547" lon="1.91677">
        <ele>166.6</ele>
        <time>2021-09-28T08:11:21Z</time>
      </trkpt>
      <trkpt lat="48.68541" lon="1.91703">
        <ele>166.3</ele>
        <time>2021-09-28T08:11:41Z</time>
      </trkpt>
      <trkpt lat="48.68525" lon="1.91718">
        <ele>168.1</ele>
        <time>2021-09-28T08:11:56Z</time>
      </trkpt>
      <trkpt lat="48.68507" lon="1.91721">
        <ele>170.7</ele>
        <time>2021-09-28T08:12:09Z</time>
      </trkpt>
      <trkpt lat="48.68489" lon="1.91719">
        <ele>171.8</ele>
        <time>2021-09-28T08:12:27Z</time>
      </trkpt>
      <trkpt lat="48.68471" lon="1.91716">
        <ele>171.9</ele>
        <time>2021-09-28T08:12:40Z</time>
      </trkpt>
      <trkpt lat="48.68453" lon="1.9171">
        <ele>172.2</ele>
        <time>2021-09-28T08:12:51Z</time>
      </trkpt>
      <trkpt lat="48.68435" lon="1.91699">
        <ele>172.6</ele>
        <time>2021-09-28T08:13:03Z</time>
      </trkpt>
      <trkpt lat="48.68417" lon="1.91697">
        <ele>172.6</ele>
        <time>2021-09-28T08:13:15Z</time>
      </trkpt>
      <trkpt lat="48.68398" lon="1.91695">
        <ele>172.9</ele>
        <time>2021-09-28T08:13:29Z</time>
      </trkpt>
      <trkpt lat="48.6838" lon="1.91694">
        <ele>173.3</ele>
        <time>2021-09-28T08:13:41Z</time>
      </trkpt>
      <trkpt lat="48.68362" lon="1.91691">
        <ele>173.7</ele>
        <time>2021-09-28T08:13:54Z</time>
      </trkpt>
      <trkpt lat="48.68343" lon="1.91693">
        <ele>173.9</ele>
        <time>2021-09-28T08:14:06Z</time>
      </trkpt>
      <trkpt lat="48.68326" lon="1.91685">
        <ele>174.4</ele>
        <time>2021-09-28T08:14:20Z</time>
      </trkpt>
      <trkpt lat="48.68308" lon="1.91676">
        <ele>174.8</ele>
        <time>2021-09-28T08:14:34Z</time>
      </trkpt>
      <trkpt lat="48.6829" lon="1.91677">
        <ele>175</ele>
        <time>2021-09-28T08:14:49Z</time>
      </trkpt>
      <trkpt lat="48.6827" lon="1.91673">
        <ele>175.1</ele>
        <time>2021-09-28T08:15:00Z</time>
      </trkpt>
      <trkpt lat="48.68252" lon="1.91682">
        <ele>175.4</ele>
        <time>2021-09-28T08:15:15Z</time>
      </trkpt>
      <trkpt lat="48.68245" lon="1.91709">
        <ele>175.8</ele>
        <time>2021-09-28T08:18:05Z</time>
      </trkpt>
      <trkpt lat="48.68228" lon="1.91722">
        <ele>175.4</ele>
        <time>2021-09-28T08:18:19Z</time>
      </trkpt>
      <trkpt lat="48.68213" lon="1.91739">
        <ele>175</ele>
        <time>2021-09-28T08:18:32Z</time>
      </trkpt>
      <trkpt lat="48.68213" lon="1.91767">
        <ele>175.2</ele>
        <time>2021-09-28T08:18:45Z</time>
      </trkpt>
      <trkpt lat="48.6822" lon="1.91792">
        <ele>175.4</ele>
        <time>2021-09-28T08:18:57Z</time>
      </trkpt>
      <trkpt lat="48.68223" lon="1.91819">
        <ele>175.4</ele>
        <time>2021-09-28T08:19:10Z</time>
      </trkpt>
      <trkpt lat="48.68228" lon="1.91847">
        <ele>175.7</ele>
        <time>2021-09-28T08:19:23Z</time>
      </trkpt>
      <trkpt lat="48.68228" lon="1.91876">
        <ele>176.2</ele>
        <time>2021-09-28T08:19:35Z</time>
      </trkpt>
      <trkpt lat="48.68229" lon="1.91904">
        <ele>176.8</ele>
        <time>2021-09-28T08:19:47Z</time>
      </trkpt>
      <trkpt lat="48.68227" lon="1.91933">
        <ele>176.8</ele>
        <time>2021-09-28T08:20:00Z</time>
      </trkpt>
      <trkpt lat="48.68229" lon="1.91961">
        <ele>176.6</ele>
        <time>2021-09-28T08:20:13Z</time>
      </trkpt>
      <trkpt lat="48.68231" lon="1.9199">
        <ele>176.4</ele>
        <time>2021-09-28T08:20:26Z</time>
      </trkpt>
      <trkpt lat="48.68231" lon="1.92019">
        <ele>175.8</ele>
        <time>2021-09-28T08:20:38Z</time>
      </trkpt>
      <trkpt lat="48.68229" lon="1.92047">
        <ele>175.1</ele>
        <time>2021-09-28T08:20:50Z</time>
      </trkpt>
      <trkpt lat="48.68227" lon="1.92074">
        <ele>174.5</ele>
        <time>2021-09-28T08:21:02Z</time>
      </trkpt>
      <trkpt lat="48.68223" lon="1.92102">
        <ele>174.2</ele>
        <time>2021-09-28T08:21:13Z</time>
      </trkpt>
      <trkpt lat="48.68214" lon="1.92127">
        <ele>174.4</ele>
        <time>2021-09-28T08:21:27Z</time>
      </trkpt>
      <trkpt lat="48.68208" lon="1.92154">
        <ele>174.5</ele>
        <time>2021-09-28T08:21:42Z</time>
      </trkpt>
      <trkpt lat="48.68204" lon="1.9218">
        <ele>174.6</ele>
        <time>2021-09-28T08:22:09Z</time>
      </trkpt>
      <trkpt lat="48.68202" lon="1.92208">
        <ele>174.5</ele>
        <time>2021-09-28T08:22:23Z</time>
      </trkpt>
      <trkpt lat="48.68189" lon="1.9223">
        <ele>175</ele>
        <time>2021-09-28T08:22:37Z</time>
      </trkpt>
      <trkpt lat="48.68181" lon="1.92255">
        <ele>175.3</ele>
        <time>2021-09-28T08:22:50Z</time>
      </trkpt>
      <trkpt lat="48.68169" lon="1.92278">
        <ele>175.8</ele>
        <time>2021-09-28T08:23:03Z</time>
      </trkpt>
      <trkpt lat="48.68159" lon="1.92301">
        <ele>175.9</ele>
        <time>2021-09-28T08:23:16Z</time>
      </trkpt>
      <trkpt lat="48.68147" lon="1.92323">
        <ele>175.9</ele>
        <time>2021-09-28T08:23:30Z</time>
      </trkpt>
      <trkpt lat="48.68134" lon="1.92344">
        <ele>176</ele>
        <time>2021-09-28T08:23:43Z</time>
      </trkpt>
      <trkpt lat="48.68125" lon="1.92368">
        <ele>176</ele>
        <time>2021-09-28T08:23:56Z</time>
      </trkpt>
      <trkpt lat="48.68121" lon="1.92396">
        <ele>176</ele>
        <time>2021-09-28T08:24:08Z</time>
      </trkpt>
      <trkpt lat="48.68118" lon="1.92424">
        <ele>176</ele>
        <time>2021-09-28T08:24:20Z</time>
      </trkpt>
      <trkpt lat="48.68116" lon="1.92451">
        <ele>175.9</ele>
        <time>2021-09-28T08:24:33Z</time>
      </trkpt>
      <trkpt lat="48.68118" lon="1.92479">
        <ele>175.8</ele>
        <time>2021-09-28T08:24:46Z</time>
      </trkpt>
      <trkpt lat="48.68119" lon="1.92507">
        <ele>176</ele>
        <time>2021-09-28T08:24:59Z</time>
      </trkpt>
      <trkpt lat="48.68122" lon="1.92535">
        <ele>176.8</ele>
        <time>2021-09-28T08:25:12Z</time>
      </trkpt>
      <trkpt lat="48.68126" lon="1.92562">
        <ele>177.7</ele>
        <time>2021-09-28T08:25:27Z</time>
      </trkpt>
      <trkpt lat="48.68129" lon="1.9259">
        <ele>178.6</ele>
        <time>2021-09-28T08:25:39Z</time>
      </trkpt>
      <trkpt lat="48.68122" lon="1.92617">
        <ele>178.8</ele>
        <time>2021-09-28T08:25:54Z</time>
      </trkpt>
      <trkpt lat="48.68118" lon="1.92646">
        <ele>179</ele>
        <time>2021-09-28T08:26:06Z</time>
      </trkpt>
      <trkpt lat="48.68121" lon="1.92673">
        <ele>179.3</ele>
        <time>2021-09-28T08:26:20Z</time>
      </trkpt>
      <trkpt lat="48.68124" lon="1.92702">
        <ele>179</ele>
        <time>2021-09-28T08:26:34Z</time>
      </trkpt>
      <trkpt lat="48.68129" lon="1.92729">
        <ele>179</ele>
        <time>2021-09-28T08:26:49Z</time>
      </trkpt>
      <trkpt lat="48.68133" lon="1.92757">
        <ele>178.9</ele>
        <time>2021-09-28T08:27:02Z</time>
      </trkpt>
      <trkpt lat="48.68142" lon="1.92782">
        <ele>179.3</ele>
        <time>2021-09-28T08:27:14Z</time>
      </trkpt>
      <trkpt lat="48.68146" lon="1.92809">
        <ele>179.2</ele>
        <time>2021-09-28T08:27:26Z</time>
      </trkpt>
      <trkpt lat="48.68141" lon="1.92836">
        <ele>178.7</ele>
        <time>2021-09-28T08:27:38Z</time>
      </trkpt>
      <trkpt lat="48.68148" lon="1.92864">
        <ele>178.4</ele>
        <time>2021-09-28T08:27:52Z</time>
      </trkpt>
      <trkpt lat="48.68155" lon="1.9289">
        <ele>178.2</ele>
        <time>2021-09-28T08:28:04Z</time>
      </trkpt>
      <trkpt lat="48.68161" lon="1.92917">
        <ele>177.8</ele>
        <time>2021-09-28T08:28:19Z</time>
      </trkpt>
      <trkpt lat="48.68154" lon="1.92942">
        <ele>177</ele>
        <time>2021-09-28T08:28:32Z</time>
      </trkpt>
      <trkpt lat="48.68148" lon="1.92969">
        <ele>176.4</ele>
        <time>2021-09-28T08:28:45Z</time>
      </trkpt>
      <trkpt lat="48.6814" lon="1.92995">
        <ele>175.8</ele>
        <time>2021-09-28T08:28:58Z</time>
      </trkpt>
      <trkpt lat="48.68126" lon="1.93014">
        <ele>175.5</ele>
        <time>2021-09-28T08:29:12Z</time>
      </trkpt>
      <trkpt lat="48.68109" lon="1.93027">
        <ele>175.7</ele>
        <time>2021-09-28T08:29:26Z</time>
      </trkpt>
      <trkpt lat="48.68094" lon="1.93043">
        <ele>176.3</ele>
        <time>2021-09-28T08:29:44Z</time>
      </trkpt>
      <trkpt lat="48.68076" lon="1.93051">
        <ele>176.7</ele>
        <time>2021-09-28T08:30:05Z</time>
      </trkpt>
      <trkpt lat="48.68058" lon="1.93056">
        <ele>176.5</ele>
        <time>2021-09-28T08:30:19Z</time>
      </trkpt>
      <trkpt lat="48.68039" lon="1.93059">
        <ele>176.2</ele>
        <time>2021-09-28T08:30:32Z</time>
      </trkpt>
      <trkpt lat="48.6802" lon="1.93059">
        <ele>175.8</ele>
        <time>2021-09-28T08:30:46Z</time>
      </trkpt>
      <trkpt lat="48.68002" lon="1.9306">
        <ele>175.5</ele>
        <time>2021-09-28T08:31:01Z</time>
      </trkpt>
      <trkpt lat="48.6799" lon="1.93081">
        <ele>175.8</ele>
        <time>2021-09-28T08:31:23Z</time>
      </trkpt>
      <trkpt lat="48.67976" lon="1.931">
        <ele>175.8</ele>
        <time>2021-09-28T08:31:39Z</time>
      </trkpt>
      <trkpt lat="48.6796" lon="1.93114">
        <ele>175.9</ele>
        <time>2021-09-28T08:31:52Z</time>
      </trkpt>
      <trkpt lat="48.67941" lon="1.93119">
        <ele>175.9</ele>
        <time>2021-09-28T08:32:05Z</time>
      </trkpt>
      <trkpt lat="48.67931" lon="1.93144">
        <ele>176.4</ele>
        <time>2021-09-28T08:32:21Z</time>
      </trkpt>
      <trkpt lat="48.67924" lon="1.9317">
        <ele>176.9</ele>
        <time>2021-09-28T08:32:33Z</time>
      </trkpt>
      <trkpt lat="48.67917" lon="1.93195">
        <ele>177</ele>
        <time>2021-09-28T08:32:46Z</time>
      </trkpt>
      <trkpt lat="48.67912" lon="1.93223">
        <ele>176.8</ele>
        <time>2021-09-28T08:33:03Z</time>
      </trkpt>
      <trkpt lat="48.67907" lon="1.93251">
        <ele>176.5</ele>
        <time>2021-09-28T08:33:14Z</time>
      </trkpt>
      <trkpt lat="48.67902" lon="1.93278">
        <ele>176.7</ele>
        <time>2021-09-28T08:33:25Z</time>
      </trkpt>
      <trkpt lat="48.67897" lon="1.93306">
        <ele>176.9</ele>
        <time>2021-09-28T08:33:38Z</time>
      </trkpt>
      <trkpt lat="48.67896" lon="1.93333">
        <ele>177.3</ele>
        <time>2021-09-28T08:33:50Z</time>
      </trkpt>
      <trkpt lat="48.6789" lon="1.93359">
        <ele>177.7</ele>
        <time>2021-09-28T08:34:03Z</time>
      </trkpt>
      <trkpt lat="48.67884" lon="1.93386">
        <ele>178.1</ele>
        <time>2021-09-28T08:34:16Z</time>
      </trkpt>
      <trkpt lat="48.67877" lon="1.93412">
        <ele>178.5</ele>
        <time>2021-09-28T08:34:29Z</time>
      </trkpt>
      <trkpt lat="48.6787" lon="1.93438">
        <ele>179.1</ele>
        <time>2021-09-28T08:34:42Z</time>
      </trkpt>
      <trkpt lat="48.67869" lon="1.93467">
        <ele>180.1</ele>
        <time>2021-09-28T08:34:54Z</time>
      </trkpt>
      <trkpt lat="48.67866" lon="1.93494">
        <ele>180.9</ele>
        <time>2021-09-28T08:35:06Z</time>
      </trkpt>
      <trkpt lat="48.67861" lon="1.93522">
        <ele>180.9</ele>
        <time>2021-09-28T08:35:18Z</time>
      </trkpt>
      <trkpt lat="48.67863" lon="1.93551">
        <ele>180.8</ele>
        <time>2021-09-28T08:35:32Z</time>
      </trkpt>
      <trkpt lat="48.67863" lon="1.93579">
        <ele>180.7</ele>
        <time>2021-09-28T08:35:45Z</time>
      </trkpt>
      <trkpt lat="48.67861" lon="1.93607">
        <ele>180.1</ele>
        <time>2021-09-28T08:35:58Z</time>
      </trkpt>
      <trkpt lat="48.67856" lon="1.93634">
        <ele>179.4</ele>
        <time>2021-09-28T08:36:10Z</time>
      </trkpt>
      <trkpt lat="48.67848" lon="1.9366">
        <ele>178.9</ele>
        <time>2021-09-28T08:36:23Z</time>
      </trkpt>
      <trkpt lat="48.67837" lon="1.93683">
        <ele>179.1</ele>
        <time>2021-09-28T08:36:36Z</time>
      </trkpt>
      <trkpt lat="48.67829" lon="1.93708">
        <ele>179.4</ele>
        <time>2021-09-28T08:36:49Z</time>
      </trkpt>
      <trkpt lat="48.6782" lon="1.93733">
        <ele>179.6</ele>
        <time>2021-09-28T08:37:02Z</time>
      </trkpt>
      <trkpt lat="48.67808" lon="1.93755">
        <ele>179.7</ele>
        <time>2021-09-28T08:37:16Z</time>
      </trkpt>
      <trkpt lat="48.67794" lon="1.93774">
        <ele>179.7</ele>
        <time>2021-09-28T08:37:30Z</time>
      </trkpt>
      <trkpt lat="48.67781" lon="1.93795">
        <ele>179.8</ele>
        <time>2021-09-28T08:37:43Z</time>
      </trkpt>
      <trkpt lat="48.67769" lon="1.93815">
        <ele>180.3</ele>
        <time>2021-09-28T08:37:58Z</time>
      </trkpt>
      <trkpt lat="48.6776" lon="1.9384">
        <ele>180.8</ele>
        <time>2021-09-28T08:38:11Z</time>
      </trkpt>
      <trkpt lat="48.67753" lon="1.93865">
        <ele>181.2</ele>
        <time>2021-09-28T08:38:26Z</time>
      </trkpt>
      <trkpt lat="48.67764" lon="1.93887">
        <ele>180.3</ele>
        <time>2021-09-28T08:42:27Z</time>
      </trkpt>
      <trkpt lat="48.67778" lon="1.93907">
        <ele>178.5</ele>
        <time>2021-09-28T08:42:44Z</time>
      </trkpt>
      <trkpt lat="48.67794" lon="1.93922">
        <ele>175.5</ele>
        <time>2021-09-28T08:42:55Z</time>
      </trkpt>
      <trkpt lat="48.67807" lon="1.93942">
        <ele>170.8</ele>
        <time>2021-09-28T08:43:14Z</time>
      </trkpt>
      <trkpt lat="48.67823" lon="1.93958">
        <ele>165.6</ele>
        <time>2021-09-28T08:43:36Z</time>
      </trkpt>
      <trkpt lat="48.67838" lon="1.93973">
        <ele>160.1</ele>
        <time>2021-09-28T08:43:54Z</time>
      </trkpt>
      <trkpt lat="48.67855" lon="1.93985">
        <ele>155.8</ele>
        <time>2021-09-28T08:44:13Z</time>
      </trkpt>
      <trkpt lat="48.67873" lon="1.93989">
        <ele>152.6</ele>
        <time>2021-09-28T08:44:37Z</time>
      </trkpt>
      <trkpt lat="48.67889" lon="1.94005">
        <ele>149</ele>
        <time>2021-09-28T08:44:54Z</time>
      </trkpt>
      <trkpt lat="48.67905" lon="1.9402">
        <ele>146.4</ele>
        <time>2021-09-28T08:45:12Z</time>
      </trkpt>
      <trkpt lat="48.67923" lon="1.94018">
        <ele>145.5</ele>
        <time>2021-09-28T08:46:03Z</time>
      </trkpt>
      <trkpt lat="48.67936" lon="1.94039">
        <ele>145.2</ele>
        <time>2021-09-28T08:46:26Z</time>
      </trkpt>
      <trkpt lat="48.67952" lon="1.94051">
        <ele>145.4</ele>
        <time>2021-09-28T08:46:39Z</time>
      </trkpt>
      <trkpt lat="48.67969" lon="1.94062">
        <ele>145.7</ele>
        <time>2021-09-28T08:46:51Z</time>
      </trkpt>
      <trkpt lat="48.67987" lon="1.94074">
        <ele>145.9</ele>
        <time>2021-09-28T08:47:04Z</time>
      </trkpt>
      <trkpt lat="48.67996" lon="1.94096">
        <ele>145.1</ele>
        <time>2021-09-28T08:47:15Z</time>
      </trkpt>
      <trkpt lat="48.68013" lon="1.94111">
        <ele>144.4</ele>
        <time>2021-09-28T08:47:32Z</time>
      </trkpt>
      <trkpt lat="48.68029" lon="1.94125">
        <ele>143.3</ele>
        <time>2021-09-28T08:47:45Z</time>
      </trkpt>
      <trkpt lat="48.68046" lon="1.94137">
        <ele>142.2</ele>
        <time>2021-09-28T08:47:56Z</time>
      </trkpt>
      <trkpt lat="48.68062" lon="1.94151">
        <ele>140.9</ele>
        <time>2021-09-28T08:48:10Z</time>
      </trkpt>
      <trkpt lat="48.68079" lon="1.94162">
        <ele>139.5</ele>
        <time>2021-09-28T08:48:22Z</time>
      </trkpt>
      <trkpt lat="48.68094" lon="1.94177">
        <ele>137.3</ele>
        <time>2021-09-28T08:48:33Z</time>
      </trkpt>
      <trkpt lat="48.68109" lon="1.94195">
        <ele>134.8</ele>
        <time>2021-09-28T08:48:47Z</time>
      </trkpt>
      <trkpt lat="48.68126" lon="1.94206">
        <ele>132.6</ele>
        <time>2021-09-28T08:49:00Z</time>
      </trkpt>
      <trkpt lat="48.68141" lon="1.9422">
        <ele>130.3</ele>
        <time>2021-09-28T08:49:14Z</time>
      </trkpt>
      <trkpt lat="48.6816" lon="1.94217">
        <ele>129</ele>
        <time>2021-09-28T08:49:56Z</time>
      </trkpt>
      <trkpt lat="48.68177" lon="1.94207">
        <ele>128.5</ele>
        <time>2021-09-28T08:50:16Z</time>
      </trkpt>
      <trkpt lat="48.68195" lon="1.94201">
        <ele>127.9</ele>
        <time>2021-09-28T08:50:32Z</time>
      </trkpt>
      <trkpt lat="48.68214" lon="1.94207">
        <ele>126.8</ele>
        <time>2021-09-28T08:50:48Z</time>
      </trkpt>
      <trkpt lat="48.68232" lon="1.94213">
        <ele>125.9</ele>
        <time>2021-09-28T08:51:02Z</time>
      </trkpt>
      <trkpt lat="48.68251" lon="1.94217">
        <ele>125.2</ele>
        <time>2021-09-28T08:51:21Z</time>
      </trkpt>
      <trkpt lat="48.6827" lon="1.9422">
        <ele>126.1</ele>
        <time>2021-09-28T08:51:34Z</time>
      </trkpt>
      <trkpt lat="48.68288" lon="1.94224">
        <ele>127</ele>
        <time>2021-09-28T08:51:47Z</time>
      </trkpt>
      <trkpt lat="48.683" lon="1.94202">
        <ele>126.9</ele>
        <time>2021-09-28T08:52:02Z</time>
      </trkpt>
      <trkpt lat="48.6831" lon="1.94179">
        <ele>126.6</ele>
        <time>2021-09-28T08:52:14Z</time>
      </trkpt>
      <trkpt lat="48.68318" lon="1.94153">
        <ele>126.2</ele>
        <time>2021-09-28T08:52:26Z</time>
      </trkpt>
      <trkpt lat="48.68326" lon="1.94127">
        <ele>126.2</ele>
        <time>2021-09-28T08:52:38Z</time>
      </trkpt>
      <trkpt lat="48.68333" lon="1.941">
        <ele>126.2</ele>
        <time>2021-09-28T08:52:50Z</time>
      </trkpt>
      <trkpt lat="48.68342" lon="1.94075">
        <ele>127.5</ele>
        <time>2021-09-28T08:53:02Z</time>
      </trkpt>
      <trkpt lat="48.68349" lon="1.94049">
        <ele>128.2</ele>
        <time>2021-09-28T08:53:15Z</time>
      </trkpt>
      <trkpt lat="48.68358" lon="1.94025">
        <ele>129.1</ele>
        <time>2021-09-28T08:53:30Z</time>
      </trkpt>
      <trkpt lat="48.68369" lon="1.94003">
        <ele>130.2</ele>
        <time>2021-09-28T08:53:45Z</time>
      </trkpt>
      <trkpt lat="48.68381" lon="1.93982">
        <ele>130.6</ele>
        <time>2021-09-28T08:53:58Z</time>
      </trkpt>
      <trkpt lat="48.68396" lon="1.93964">
        <ele>131.1</ele>
        <time>2021-09-28T08:54:10Z</time>
      </trkpt>
      <trkpt lat="48.68412" lon="1.93949">
        <ele>131.6</ele>
        <time>2021-09-28T08:54:26Z</time>
      </trkpt>
      <trkpt lat="48.68426" lon="1.93929">
        <ele>132.3</ele>
        <time>2021-09-28T08:54:42Z</time>
      </trkpt>
      <trkpt lat="48.68435" lon="1.93904">
        <ele>132.1</ele>
        <time>2021-09-28T08:54:54Z</time>
      </trkpt>
      <trkpt lat="48.68448" lon="1.93883">
        <ele>132.8</ele>
        <time>2021-09-28T08:55:06Z</time>
      </trkpt>
      <trkpt lat="48.68461" lon="1.93862">
        <ele>132.6</ele>
        <time>2021-09-28T08:55:20Z</time>
      </trkpt>
      <trkpt lat="48.68474" lon="1.93842">
        <ele>131.9</ele>
        <time>2021-09-28T08:55:35Z</time>
      </trkpt>
      <trkpt lat="48.68486" lon="1.93819">
        <ele>131.4</ele>
        <time>2021-09-28T08:55:49Z</time>
      </trkpt>
      <trkpt lat="48.68495" lon="1.93794">
        <ele>130.7</ele>
        <time>2021-09-28T08:56:02Z</time>
      </trkpt>
      <trkpt lat="48.68498" lon="1.93766">
        <ele>129.1</ele>
        <time>2021-09-28T08:56:14Z</time>
      </trkpt>
      <trkpt lat="48.68508" lon="1.93742">
        <ele>129.2</ele>
        <time>2021-09-28T08:56:25Z</time>
      </trkpt>
      <trkpt lat="48.68511" lon="1.93714">
        <ele>128.8</ele>
        <time>2021-09-28T08:56:46Z</time>
      </trkpt>
      <trkpt lat="48.68516" lon="1.93688">
        <ele>128.4</ele>
        <time>2021-09-28T08:58:03Z</time>
      </trkpt>
      <trkpt lat="48.68523" lon="1.93659">
        <ele>128.3</ele>
        <time>2021-09-28T08:58:21Z</time>
      </trkpt>
      <trkpt lat="48.6853" lon="1.93634">
        <ele>128.6</ele>
        <time>2021-09-28T08:58:34Z</time>
      </trkpt>
      <trkpt lat="48.68541" lon="1.93611">
        <ele>129.1</ele>
        <time>2021-09-28T08:58:49Z</time>
      </trkpt>
      <trkpt lat="48.68557" lon="1.93594">
        <ele>130</ele>
        <time>2021-09-28T08:59:04Z</time>
      </trkpt>
      <trkpt lat="48.68563" lon="1.93568">
        <ele>129.6</ele>
        <time>2021-09-28T08:59:20Z</time>
      </trkpt>
      <trkpt lat="48.68567" lon="1.93539">
        <ele>129.1</ele>
        <time>2021-09-28T08:59:33Z</time>
      </trkpt>
      <trkpt lat="48.68571" lon="1.93512">
        <ele>128.6</ele>
        <time>2021-09-28T08:59:45Z</time>
      </trkpt>
      <trkpt lat="48.68583" lon="1.93491">
        <ele>129.2</ele>
        <time>2021-09-28T08:59:59Z</time>
      </trkpt>
      <trkpt lat="48.68592" lon="1.93467">
        <ele>131.7</ele>
        <time>2021-09-28T09:00:15Z</time>
      </trkpt>
      <trkpt lat="48.68606" lon="1.93446">
        <ele>134.4</ele>
        <time>2021-09-28T09:00:32Z</time>
      </trkpt>
      <trkpt lat="48.68617" lon="1.93424">
        <ele>136</ele>
        <time>2021-09-28T09:00:45Z</time>
      </trkpt>
      <trkpt lat="48.6863" lon="1.93402">
        <ele>137.2</ele>
        <time>2021-09-28T09:00:58Z</time>
      </trkpt>
      <trkpt lat="48.68644" lon="1.93385">
        <ele>138.2</ele>
        <time>2021-09-28T09:01:14Z</time>
      </trkpt>
      <trkpt lat="48.6866" lon="1.93371">
        <ele>139.1</ele>
        <time>2021-09-28T09:01:31Z</time>
      </trkpt>
      <trkpt lat="48.6866" lon="1.93343">
        <ele>137.3</ele>
        <time>2021-09-28T09:01:50Z</time>
      </trkpt>
      <trkpt lat="48.68656" lon="1.93316">
        <ele>136.8</ele>
        <time>2021-09-28T09:02:01Z</time>
      </trkpt>
      <trkpt lat="48.68653" lon="1.93287">
        <ele>137.4</ele>
        <time>2021-09-28T09:02:15Z</time>
      </trkpt>
      <trkpt lat="48.68649" lon="1.9326">
        <ele>137.6</ele>
        <time>2021-09-28T09:02:29Z</time>
      </trkpt>
      <trkpt lat="48.68652" lon="1.93234">
        <ele>138.1</ele>
        <time>2021-09-28T09:02:42Z</time>
      </trkpt>
      <trkpt lat="48.68658" lon="1.93207">
        <ele>138.7</ele>
        <time>2021-09-28T09:02:55Z</time>
      </trkpt>
      <trkpt lat="48.68664" lon="1.9318">
        <ele>139.6</ele>
        <time>2021-09-28T09:03:10Z</time>
      </trkpt>
      <trkpt lat="48.68669" lon="1.93154">
        <ele>140.4</ele>
        <time>2021-09-28T09:03:22Z</time>
      </trkpt>
      <trkpt lat="48.68675" lon="1.93127">
        <ele>141.5</ele>
        <time>2021-09-28T09:03:34Z</time>
      </trkpt>
      <trkpt lat="48.68674" lon="1.93099">
        <ele>140.7</ele>
        <time>2021-09-28T09:03:46Z</time>
      </trkpt>
      <trkpt lat="48.68676" lon="1.93069">
        <ele>140</ele>
        <time>2021-09-28T09:04:00Z</time>
      </trkpt>
      <trkpt lat="48.68681" lon="1.93042">
        <ele>139.4</ele>
        <time>2021-09-28T09:04:13Z</time>
      </trkpt>
      <trkpt lat="48.68682" lon="1.93012">
        <ele>137.6</ele>
        <time>2021-09-28T09:04:28Z</time>
      </trkpt>
      <trkpt lat="48.6869" lon="1.92986">
        <ele>137.3</ele>
        <time>2021-09-28T09:04:41Z</time>
      </trkpt>
      <trkpt lat="48.68698" lon="1.9296">
        <ele>136.9</ele>
        <time>2021-09-28T09:04:55Z</time>
      </trkpt>
      <trkpt lat="48.68707" lon="1.92936">
        <ele>136.3</ele>
        <time>2021-09-28T09:05:06Z</time>
      </trkpt>
      <trkpt lat="48.68717" lon="1.92913">
        <ele>135.9</ele>
        <time>2021-09-28T09:05:18Z</time>
      </trkpt>
      <trkpt lat="48.68727" lon="1.92887">
        <ele>136.3</ele>
        <time>2021-09-28T09:05:31Z</time>
      </trkpt>
      <trkpt lat="48.68733" lon="1.9286">
        <ele>136.2</ele>
        <time>2021-09-28T09:05:44Z</time>
      </trkpt>
      <trkpt lat="48.68741" lon="1.92833">
        <ele>136.1</ele>
        <time>2021-09-28T09:05:59Z</time>
      </trkpt>
      <trkpt lat="48.68752" lon="1.9281">
        <ele>136.2</ele>
        <time>2021-09-28T09:06:10Z</time>
      </trkpt>
      <trkpt lat="48.68766" lon="1.92791">
        <ele>137.6</ele>
        <time>2021-09-28T09:06:23Z</time>
      </trkpt>
      <trkpt lat="48.68774" lon="1.92766">
        <ele>138.3</ele>
        <time>2021-09-28T09:06:35Z</time>
      </trkpt>
      <trkpt lat="48.68779" lon="1.92739">
        <ele>138.4</ele>
        <time>2021-09-28T09:06:48Z</time>
      </trkpt>
      <trkpt lat="48.68785" lon="1.92713">
        <ele>138.3</ele>
        <time>2021-09-28T09:07:01Z</time>
      </trkpt>
      <trkpt lat="48.68795" lon="1.9269">
        <ele>138.7</ele>
        <time>2021-09-28T09:07:14Z</time>
      </trkpt>
      <trkpt lat="48.68804" lon="1.92666">
        <ele>138.5</ele>
        <time>2021-09-28T09:07:29Z</time>
      </trkpt>
      <trkpt lat="48.68819" lon="1.92647">
        <ele>139.1</ele>
        <time>2021-09-28T09:07:43Z</time>
      </trkpt>
      <trkpt lat="48.68831" lon="1.92625">
        <ele>138.8</ele>
        <time>2021-09-28T09:07:57Z</time>
      </trkpt>
      <trkpt lat="48.68846" lon="1.9261">
        <ele>140.3</ele>
        <time>2021-09-28T09:09:42Z</time>
      </trkpt>
      <trkpt lat="48.68855" lon="1.92586">
        <ele>140.6</ele>
        <time>2021-09-28T09:10:15Z</time>
      </trkpt>
      <trkpt lat="48.6887" lon="1.92568">
        <ele>143.3</ele>
        <time>2021-09-28T09:10:29Z</time>
      </trkpt>
      <trkpt lat="48.68878" lon="1.92544">
        <ele>144.6</ele>
        <time>2021-09-28T09:10:44Z</time>
      </trkpt>
      <trkpt lat="48.68877" lon="1.92516">
        <ele>144.1</ele>
        <time>2021-09-28T09:10:55Z</time>
      </trkpt>
      <trkpt lat="48.68867" lon="1.92491">
        <ele>141.4</ele>
        <time>2021-09-28T09:11:10Z</time>
      </trkpt>
      <trkpt lat="48.68873" lon="1.92464">
        <ele>141.2</ele>
        <time>2021-09-28T09:11:31Z</time>
      </trkpt>
      <trkpt lat="48.68884" lon="1.92443">
        <ele>141.9</ele>
        <time>2021-09-28T09:11:44Z</time>
      </trkpt>
      <trkpt lat="48.68894" lon="1.92419">
        <ele>142</ele>
        <time>2021-09-28T09:11:57Z</time>
      </trkpt>
      <trkpt lat="48.68909" lon="1.92401">
        <ele>142.1</ele>
        <time>2021-09-28T09:12:09Z</time>
      </trkpt>
      <trkpt lat="48.6892" lon="1.92378">
        <ele>140.7</ele>
        <time>2021-09-28T09:12:23Z</time>
      </trkpt>
      <trkpt lat="48.68936" lon="1.92363">
        <ele>140.6</ele>
        <time>2021-09-28T09:12:38Z</time>
      </trkpt>
      <trkpt lat="48.68951" lon="1.92347">
        <ele>140.6</ele>
        <time>2021-09-28T09:12:55Z</time>
      </trkpt>
      <trkpt lat="48.6897" lon="1.92345">
        <ele>142.5</ele>
        <time>2021-09-28T09:13:12Z</time>
      </trkpt>
      <trkpt lat="48.68982" lon="1.92323">
        <ele>142.4</ele>
        <time>2021-09-28T09:13:50Z</time>
      </trkpt>
      <trkpt lat="48.68983" lon="1.92295">
        <ele>141.6</ele>
        <time>2021-09-28T09:14:03Z</time>
      </trkpt>
      <trkpt lat="48.68983" lon="1.92266">
        <ele>140.6</ele>
        <time>2021-09-28T09:14:15Z</time>
      </trkpt>
      <trkpt lat="48.68985" lon="1.92237">
        <ele>139.8</ele>
        <time>2021-09-28T09:14:27Z</time>
      </trkpt>
      <trkpt lat="48.68987" lon="1.92209">
        <ele>139</ele>
        <time>2021-09-28T09:14:40Z</time>
      </trkpt>
      <trkpt lat="48.68989" lon="1.92181">
        <ele>138.3</ele>
        <time>2021-09-28T09:14:52Z</time>
      </trkpt>
      <trkpt lat="48.68992" lon="1.92153">
        <ele>137.6</ele>
        <time>2021-09-28T09:15:04Z</time>
      </trkpt>
      <trkpt lat="48.69" lon="1.92127">
        <ele>137.2</ele>
        <time>2021-09-28T09:15:18Z</time>
      </trkpt>
      <trkpt lat="48.69005" lon="1.92099">
        <ele>137</ele>
        <time>2021-09-28T09:15:32Z</time>
      </trkpt>
      <trkpt lat="48.69014" lon="1.92074">
        <ele>138.1</ele>
        <time>2021-09-28T09:15:44Z</time>
      </trkpt>
      <trkpt lat="48.69021" lon="1.92047">
        <ele>139</ele>
        <time>2021-09-28T09:15:59Z</time>
      </trkpt>
      <trkpt lat="48.69029" lon="1.92021">
        <ele>139.8</ele>
        <time>2021-09-28T09:16:12Z</time>
      </trkpt>
      <trkpt lat="48.69039" lon="1.91998">
        <ele>141</ele>
        <time>2021-09-28T09:16:23Z</time>
      </trkpt>
      <trkpt lat="48.69048" lon="1.91974">
        <ele>141.5</ele>
        <time>2021-09-28T09:16:39Z</time>
      </trkpt>
      <trkpt lat="48.69051" lon="1.91947">
        <ele>140.6</ele>
        <time>2021-09-28T09:17:50Z</time>
      </trkpt>
      <trkpt lat="48.69062" lon="1.91924">
        <ele>140.8</ele>
        <time>2021-09-28T09:18:04Z</time>
      </trkpt>
      <trkpt lat="48.69071" lon="1.919">
        <ele>140.4</ele>
        <time>2021-09-28T09:18:18Z</time>
      </trkpt>
      <trkpt lat="48.69074" lon="1.91872">
        <ele>138.6</ele>
        <time>2021-09-28T09:18:33Z</time>
      </trkpt>
      <trkpt lat="48.69085" lon="1.91849">
        <ele>137.5</ele>
        <time>2021-09-28T09:18:50Z</time>
      </trkpt>
      <trkpt lat="48.69097" lon="1.91829">
        <ele>137.6</ele>
        <time>2021-09-28T09:19:01Z</time>
      </trkpt>
      <trkpt lat="48.6911" lon="1.91808">
        <ele>138.2</ele>
        <time>2021-09-28T09:19:12Z</time>
      </trkpt>
      <trkpt lat="48.6912" lon="1.91784">
        <ele>138</ele>
        <time>2021-09-28T09:19:26Z</time>
      </trkpt>
      <trkpt lat="48.6913" lon="1.91761">
        <ele>137.7</ele>
        <time>2021-09-28T09:19:42Z</time>
      </trkpt>
      <trkpt lat="48.69144" lon="1.91742">
        <ele>137.8</ele>
        <time>2021-09-28T09:19:54Z</time>
      </trkpt>
      <trkpt lat="48.69153" lon="1.91715">
        <ele>137.4</ele>
        <time>2021-09-28T09:20:06Z</time>
      </trkpt>
      <trkpt lat="48.69165" lon="1.91692">
        <ele>137.1</ele>
        <time>2021-09-28T09:20:18Z</time>
      </trkpt>
      <trkpt lat="48.6918" lon="1.91677">
        <ele>137.5</ele>
        <time>2021-09-28T09:20:34Z</time>
      </trkpt>
      <trkpt lat="48.69198" lon="1.91678">
        <ele>138.9</ele>
        <time>2021-09-28T09:20:51Z</time>
      </trkpt>
      <trkpt lat="48.69216" lon="1.91672">
        <ele>139.6</ele>
        <time>2021-09-28T09:21:02Z</time>
      </trkpt>
      <trkpt lat="48.69234" lon="1.91662">
        <ele>139.6</ele>
        <time>2021-09-28T09:21:30Z</time>
      </trkpt>
      <trkpt lat="48.6925" lon="1.9165">
        <ele>139.5</ele>
        <time>2021-09-28T09:21:45Z</time>
      </trkpt>
      <trkpt lat="48.69268" lon="1.91637">
        <ele>141.2</ele>
        <time>2021-09-28T09:21:57Z</time>
      </trkpt>
      <trkpt lat="48.69285" lon="1.91626">
        <ele>142.7</ele>
        <time>2021-09-28T09:22:08Z</time>
      </trkpt>
      <trkpt lat="48.69298" lon="1.91607">
        <ele>142.4</ele>
        <time>2021-09-28T09:22:21Z</time>
      </trkpt>
      <trkpt lat="48.6931" lon="1.91584">
        <ele>141.1</ele>
        <time>2021-09-28T09:22:33Z</time>
      </trkpt>
      <trkpt lat="48.69323" lon="1.91564">
        <ele>141</ele>
        <time>2021-09-28T09:22:47Z</time>
      </trkpt>
      <trkpt lat="48.69335" lon="1.91543">
        <ele>140.2</ele>
        <time>2021-09-28T09:23:01Z</time>
      </trkpt>
      <trkpt lat="48.69349" lon="1.91526">
        <ele>139</ele>
        <time>2021-09-28T09:23:15Z</time>
      </trkpt>
      <trkpt lat="48.69368" lon="1.91521">
        <ele>139.4</ele>
        <time>2021-09-28T09:23:35Z</time>
      </trkpt>
      <trkpt lat="48.69368" lon="1.91494">
        <ele>137.5</ele>
        <time>2021-09-28T09:25:21Z</time>
      </trkpt>
      <trkpt lat="48.69358" lon="1.9147">
        <ele>136.5</ele>
        <time>2021-09-28T09:25:35Z</time>
      </trkpt>
      <trkpt lat="48.69351" lon="1.91444">
        <ele>135.8</ele>
        <time>2021-09-28T09:25:49Z</time>
      </trkpt>
      <trkpt lat="48.69338" lon="1.91423">
        <ele>135.1</ele>
        <time>2021-09-28T09:26:02Z</time>
      </trkpt>
      <trkpt lat="48.69329" lon="1.91398">
        <ele>135.2</ele>
        <time>2021-09-28T09:26:17Z</time>
      </trkpt>
      <trkpt lat="48.69319" lon="1.91374">
        <ele>135.7</ele>
        <time>2021-09-28T09:26:29Z</time>
      </trkpt>
      <trkpt lat="48.69313" lon="1.91348">
        <ele>136.4</ele>
        <time>2021-09-28T09:26:42Z</time>
      </trkpt>
      <trkpt lat="48.69304" lon="1.91323">
        <ele>137.5</ele>
        <time>2021-09-28T09:26:58Z</time>
      </trkpt>
      <trkpt lat="48.69293" lon="1.91301">
        <ele>138.8</ele>
        <time>2021-09-28T09:27:12Z</time>
      </trkpt>
      <trkpt lat="48.69283" lon="1.91277">
        <ele>140</ele>
        <time>2021-09-28T09:27:24Z</time>
      </trkpt>
      <trkpt lat="48.69271" lon="1.91255">
        <ele>140.8</ele>
        <time>2021-09-28T09:27:36Z</time>
      </trkpt>
      <trkpt lat="48.69261" lon="1.91231">
        <ele>141.3</ele>
        <time>2021-09-28T09:27:52Z</time>
      </trkpt>
      <trkpt lat="48.69253" lon="1.91205">
        <ele>141.6</ele>
        <time>2021-09-28T09:28:04Z</time>
      </trkpt>
      <trkpt lat="48.6924" lon="1.91184">
        <ele>141.8</ele>
        <time>2021-09-28T09:28:18Z</time>
      </trkpt>
      <trkpt lat="48.69232" lon="1.9116">
        <ele>142.3</ele>
        <time>2021-09-28T09:28:31Z</time>
      </trkpt>
      <trkpt lat="48.69224" lon="1.91134">
        <ele>142.7</ele>
        <time>2021-09-28T09:28:45Z</time>
      </trkpt>
      <trkpt lat="48.69212" lon="1.9111">
        <ele>143.1</ele>
        <time>2021-09-28T09:28:58Z</time>
      </trkpt>
      <trkpt lat="48.69203" lon="1.91086">
        <ele>143.5</ele>
        <time>2021-09-28T09:29:11Z</time>
      </trkpt>
      <trkpt lat="48.69193" lon="1.91062">
        <ele>143.7</ele>
        <time>2021-09-28T09:29:24Z</time>
      </trkpt>
      <trkpt lat="48.69187" lon="1.91036">
        <ele>143.8</ele>
        <time>2021-09-28T09:29:37Z</time>
      </trkpt>
      <trkpt lat="48.69182" lon="1.91009">
        <ele>143.8</ele>
        <time>2021-09-28T09:29:50Z</time>
      </trkpt>
      <trkpt lat="48.69184" lon="1.90982">
        <ele>144.4</ele>
        <time>2021-09-28T09:30:42Z</time>
      </trkpt>
      <trkpt lat="48.692" lon="1.90967">
        <ele>144.6</ele>
        <time>2021-09-28T09:30:54Z</time>
      </trkpt>
      <trkpt lat="48.69211" lon="1.90942">
        <ele>145.2</ele>
        <time>2021-09-28T09:31:12Z</time>
      </trkpt>
      <trkpt lat="48.69223" lon="1.90921">
        <ele>145.5</ele>
        <time>2021-09-28T09:31:25Z</time>
      </trkpt>
      <trkpt lat="48.69233" lon="1.90899">
        <ele>145.4</ele>
        <time>2021-09-28T09:31:38Z</time>
      </trkpt>
      <trkpt lat="48.69248" lon="1.90883">
        <ele>144.7</ele>
        <time>2021-09-28T09:31:54Z</time>
      </trkpt>
      <trkpt lat="48.69259" lon="1.90859">
        <ele>144.4</ele>
        <time>2021-09-28T09:32:07Z</time>
      </trkpt>
      <trkpt lat="48.6927" lon="1.90837">
        <ele>144.5</ele>
        <time>2021-09-28T09:32:23Z</time>
      </trkpt>
      <trkpt lat="48.69287" lon="1.90824">
        <ele>145.2</ele>
        <time>2021-09-28T09:32:39Z</time>
      </trkpt>
    </trkseg>
  </trk>
</gpx>